sensor_id;sensor_type;location;lat;lon;timestamp;pressure;altitude;pressure_sealevel;temperature;humidity
21290;BME280;10804;48.988;2.408;2023-02-28T00:01:05;101972.03;;;7.27;59.31
21290;BME280;10804;48.988;2.408;2023-02-28T00:03:32;101971.16;;;7.27;59.25
21290;BME280;10804;48.988;2.408;2023-02-28T00:06:01;101970.28;;;7.23;58.71
21290;BME280;10804;48.988;2.408;2023-02-28T00:08:29;101972.00;;;7.23;59.04
21290;BME280;10804;48.988;2.408;2023-02-28T00:11:02;101972.88;;;7.22;58.81
21290;BME280;10804;48.988;2.408;2023-02-28T00:13:29;101983.25;;;7.22;58.81
21290;BME280;10804;48.988;2.408;2023-02-28T00:16:00;101981.47;;;7.18;59.23
21290;BME280;10804;48.988;2.408;2023-02-28T00:18:28;101987.50;;;7.15;58.99
21290;BME280;10804;48.988;2.408;2023-02-28T00:20:55;101979.69;;;7.14;59.09
21290;BME280;10804;48.988;2.408;2023-02-28T00:23:23;101979.72;;;7.12;59.00
21290;BME280;10804;48.988;2.408;2023-02-28T00:25:50;101985.78;;;7.17;58.95
21290;BME280;10804;48.988;2.408;2023-02-28T00:28:19;101985.75;;;7.11;59.12
21290;BME280;10804;48.988;2.408;2023-02-28T00:30:47;101989.22;;;7.10;59.13
21290;BME280;10804;48.988;2.408;2023-02-28T00:33:15;101988.31;;;7.08;58.89
21290;BME280;10804;48.988;2.408;2023-02-28T00:35:42;101989.16;;;7.07;59.01
21290;BME280;10804;48.988;2.408;2023-02-28T00:38:12;101983.09;;;7.05;59.18
21290;BME280;10804;48.988;2.408;2023-02-28T00:40:39;101986.56;;;7.04;59.28
21290;BME280;10804;48.988;2.408;2023-02-28T00:43:07;101984.81;;;7.05;59.20
21290;BME280;10804;48.988;2.408;2023-02-28T00:45:35;101992.59;;;7.02;59.15
21290;BME280;10804;48.988;2.408;2023-02-28T00:48:04;101984.78;;;7.00;59.43
21290;BME280;10804;48.988;2.408;2023-02-28T00:50:32;101990.84;;;7.02;59.06
21290;BME280;10804;48.988;2.408;2023-02-28T00:52:59;101982.19;;;6.99;58.98
21290;BME280;10804;48.988;2.408;2023-02-28T00:55:26;101981.28;;;6.97;59.15
21290;BME280;10804;48.988;2.408;2023-02-28T00:57:53;101996.00;;;6.96;59.29
21290;BME280;10804;48.988;2.408;2023-02-28T01:00:21;101994.25;;;6.95;59.09
21290;BME280;10804;48.988;2.408;2023-02-28T01:02:51;102001.19;;;6.96;59.23
21290;BME280;10804;48.988;2.408;2023-02-28T01:05:22;101999.41;;;6.92;59.36
21290;BME280;10804;48.988;2.408;2023-02-28T01:07:49;102001.13;;;6.90;59.02
21290;BME280;10804;48.988;2.408;2023-02-28T01:10:17;102001.97;;;6.91;59.18
21290;BME280;10804;48.988;2.408;2023-02-28T01:12:44;101999.38;;;6.91;59.02
21290;BME280;10804;48.988;2.408;2023-02-28T01:15:11;101999.34;;;6.86;59.14
21290;BME280;10804;48.988;2.408;2023-02-28T01:17:39;102000.22;;;6.90;59.35
21290;BME280;10804;48.988;2.408;2023-02-28T01:20:09;101995.91;;;6.87;59.24
21290;BME280;10804;48.988;2.408;2023-02-28T01:22:36;102004.56;;;6.89;59.33
21290;BME280;10804;48.988;2.408;2023-02-28T01:25:04;102003.66;;;6.86;59.19
21290;BME280;10804;48.988;2.408;2023-02-28T01:27:33;102006.25;;;6.84;59.22
21290;BME280;10804;48.988;2.408;2023-02-28T01:30:00;102002.78;;;6.84;59.18
21290;BME280;10804;48.988;2.408;2023-02-28T01:32:27;102009.66;;;6.80;59.36
21290;BME280;10804;48.988;2.408;2023-02-28T01:34:55;102012.25;;;6.82;59.30
21290;BME280;10804;48.988;2.408;2023-02-28T01:37:24;102002.69;;;6.76;59.21
21290;BME280;10804;48.988;2.408;2023-02-28T01:39:51;101999.25;;;6.77;59.05
21290;BME280;10804;48.988;2.408;2023-02-28T01:42:20;101998.34;;;6.74;59.38
21290;BME280;10804;48.988;2.408;2023-02-28T01:45:00;101998.31;;;6.69;59.57
21290;BME280;10804;48.988;2.408;2023-02-28T01:47:31;101995.75;;;6.72;59.30
21290;BME280;10804;48.988;2.408;2023-02-28T01:50:01;101990.59;;;6.72;59.33
21290;BME280;10804;48.988;2.408;2023-02-28T01:52:32;101988.81;;;6.70;59.11
21290;BME280;10804;48.988;2.408;2023-02-28T01:55:02;101993.97;;;6.68;59.00
21290;BME280;10804;48.988;2.408;2023-02-28T01:57:34;101981.03;;;6.68;59.06
21290;BME280;10804;48.988;2.408;2023-02-28T02:00:07;101987.94;;;6.69;59.54
21290;BME280;10804;48.988;2.408;2023-02-28T02:02:50;101987.03;;;6.64;59.28
21290;BME280;10804;48.988;2.408;2023-02-28T02:05:20;101979.19;;;6.60;59.44
21290;BME280;10804;48.988;2.408;2023-02-28T02:07:52;101993.91;;;6.62;59.52
21290;BME280;10804;48.988;2.408;2023-02-28T02:10:25;101974.88;;;6.60;59.49
21290;BME280;10804;48.988;2.408;2023-02-28T02:13:11;101986.16;;;6.61;59.41
21290;BME280;10804;48.988;2.408;2023-02-28T02:15:46;101985.25;;;6.57;59.46
21290;BME280;10804;48.988;2.408;2023-02-28T02:18:23;101981.78;;;6.58;59.35
21290;BME280;10804;48.988;2.408;2023-02-28T02:21:15;101982.59;;;6.54;59.52
21290;BME280;10804;48.988;2.408;2023-02-28T02:24:03;101979.94;;;6.48;59.15
21290;BME280;10804;48.988;2.408;2023-02-28T02:26:55;101974.72;;;6.45;59.45
21290;BME280;10804;48.988;2.408;2023-02-28T02:29:44;101968.66;;;6.45;59.62
21290;BME280;10804;48.988;2.408;2023-02-28T02:32:22;101974.75;;;6.48;59.44
21290;BME280;10804;48.988;2.408;2023-02-28T02:35:01;101966.94;;;6.44;59.21
21290;BME280;10804;48.988;2.408;2023-02-28T02:37:38;101970.38;;;6.43;59.47
21290;BME280;10804;48.988;2.408;2023-02-28T02:40:11;101966.03;;;6.40;59.41
21290;BME280;10804;48.988;2.408;2023-02-28T02:42:45;101963.44;;;6.39;59.52
21290;BME280;10804;48.988;2.408;2023-02-28T02:45:18;101955.63;;;6.37;59.56
21290;BME280;10804;48.988;2.408;2023-02-28T02:47:49;101959.03;;;6.32;59.90
21290;BME280;10804;48.988;2.408;2023-02-28T02:50:22;101958.22;;;6.36;59.42
21290;BME280;10804;48.988;2.408;2023-02-28T02:52:54;101959.03;;;6.33;59.40
21290;BME280;10804;48.988;2.408;2023-02-28T02:55:24;101967.66;;;6.29;59.51
21290;BME280;10804;48.988;2.408;2023-02-28T02:57:54;101973.72;;;6.30;59.74
21290;BME280;10804;48.988;2.408;2023-02-28T03:00:27;101967.66;;;6.32;59.94
21290;BME280;10804;48.988;2.408;2023-02-28T03:02:58;101962.44;;;6.26;59.47
21290;BME280;10804;48.988;2.408;2023-02-28T03:05:31;101963.34;;;6.31;59.68
21290;BME280;10804;48.988;2.408;2023-02-28T03:08:03;101962.44;;;6.26;59.53
21290;BME280;10804;48.988;2.408;2023-02-28T03:10:34;101970.19;;;6.28;59.78
21290;BME280;10804;48.988;2.408;2023-02-28T03:13:12;101973.69;;;6.28;59.52
21290;BME280;10804;48.988;2.408;2023-02-28T03:15:54;101960.69;;;6.24;59.66
21290;BME280;10804;48.988;2.408;2023-02-28T03:18:32;101965.81;;;6.22;59.57
21290;BME280;10804;48.988;2.408;2023-02-28T03:21:11;101972.72;;;6.20;59.67
21290;BME280;10804;48.988;2.408;2023-02-28T03:23:45;101958.84;;;6.15;59.36
21290;BME280;10804;48.988;2.408;2023-02-28T03:26:19;101970.97;;;6.21;59.68
21290;BME280;10804;48.988;2.408;2023-02-28T03:28:53;101975.31;;;6.20;59.64
21290;BME280;10804;48.988;2.408;2023-02-28T03:31:28;101981.31;;;6.18;59.73
21290;BME280;10804;48.988;2.408;2023-02-28T03:34:04;101970.91;;;6.13;59.60
21290;BME280;10804;48.988;2.408;2023-02-28T03:36:38;101973.53;;;6.16;59.67
21290;BME280;10804;48.988;2.408;2023-02-28T03:39:13;101974.34;;;6.14;59.71
21290;BME280;10804;48.988;2.408;2023-02-28T03:41:43;101979.53;;;6.12;59.82
21290;BME280;10804;48.988;2.408;2023-02-28T03:44:17;101967.44;;;6.11;59.55
21290;BME280;10804;48.988;2.408;2023-02-28T03:46:52;101964.78;;;6.05;59.65
21290;BME280;10804;48.988;2.408;2023-02-28T03:49:23;101978.63;;;6.09;59.56
21290;BME280;10804;48.988;2.408;2023-02-28T03:51:54;101967.34;;;6.05;59.52
21290;BME280;10804;48.988;2.408;2023-02-28T03:54:25;101967.34;;;6.05;59.62
21290;BME280;10804;48.988;2.408;2023-02-28T03:56:59;101982.06;;;6.09;59.64
21290;BME280;10804;48.988;2.408;2023-02-28T03:59:30;101972.56;;;6.08;59.60
21290;BME280;10804;48.988;2.408;2023-02-28T04:02:01;101977.63;;;5.99;59.68
21290;BME280;10804;48.988;2.408;2023-02-28T04:04:28;101973.34;;;6.01;59.63
21290;BME280;10804;48.988;2.408;2023-02-28T04:07:03;101974.16;;;5.99;59.77
21290;BME280;10804;48.988;2.408;2023-02-28T04:09:31;101976.78;;;6.00;59.65
21290;BME280;10804;48.988;2.408;2023-02-28T04:11:59;101982.84;;;6.02;59.52
21290;BME280;10804;48.988;2.408;2023-02-28T04:14:26;101982.78;;;5.96;59.67
21290;BME280;10804;48.988;2.408;2023-02-28T04:16:53;101990.56;;;5.96;59.59
21290;BME280;10804;48.988;2.408;2023-02-28T04:19:21;101987.06;;;5.96;59.82
21290;BME280;10804;48.988;2.408;2023-02-28T04:21:50;101999.16;;;5.97;59.93
21290;BME280;10804;48.988;2.408;2023-02-28T04:24:20;102000.81;;;5.90;59.84
21290;BME280;10804;48.988;2.408;2023-02-28T04:26:50;101989.53;;;5.85;59.75
21290;BME280;10804;48.988;2.408;2023-02-28T04:29:19;101991.25;;;5.86;59.75
21290;BME280;10804;48.988;2.408;2023-02-28T04:31:50;101996.50;;;5.89;59.54
21290;BME280;10804;48.988;2.408;2023-02-28T04:34:19;101999.03;;;5.85;59.65
21290;BME280;10804;48.988;2.408;2023-02-28T04:36:49;102000.72;;;5.84;59.70
21290;BME280;10804;48.988;2.408;2023-02-28T04:39:18;102006.78;;;5.85;59.72
21290;BME280;10804;48.988;2.408;2023-02-28T04:41:45;101994.69;;;5.85;59.90
21290;BME280;10804;48.988;2.408;2023-02-28T04:44:13;101999.00;;;5.83;59.91
21290;BME280;10804;48.988;2.408;2023-02-28T04:46:41;101999.78;;;5.79;59.76
21290;BME280;10804;48.988;2.408;2023-02-28T04:49:09;102004.06;;;5.79;59.81
21290;BME280;10804;48.988;2.408;2023-02-28T04:51:37;102012.69;;;5.78;59.82
21290;BME280;10804;48.988;2.408;2023-02-28T04:54:05;102003.16;;;5.75;60.07
21290;BME280;10804;48.988;2.408;2023-02-28T04:56:34;102001.38;;;5.71;59.97
21290;BME280;10804;48.988;2.408;2023-02-28T04:59:01;102005.84;;;5.80;59.90
21290;BME280;10804;48.988;2.408;2023-02-28T05:01:30;102015.31;;;5.79;59.85
21290;BME280;10804;48.988;2.408;2023-02-28T05:03:59;102006.59;;;5.74;59.99
21290;BME280;10804;48.988;2.408;2023-02-28T05:06:30;102005.66;;;5.69;59.99
21290;BME280;10804;48.988;2.408;2023-02-28T05:08:58;102011.69;;;5.68;59.66
21290;BME280;10804;48.988;2.408;2023-02-28T05:11:27;102015.13;;;5.67;59.70
21290;BME280;10804;48.988;2.408;2023-02-28T05:14:01;102008.16;;;5.63;60.06
21290;BME280;10804;48.988;2.408;2023-02-28T05:16:28;102016.09;;;5.75;59.74
21290;BME280;10804;48.988;2.408;2023-02-28T05:18:55;102018.56;;;5.68;59.76
21290;BME280;10804;48.988;2.408;2023-02-28T05:21:25;102012.53;;;5.67;59.84
21290;BME280;10804;48.988;2.408;2023-02-28T05:23:53;102015.94;;;5.65;59.95
21290;BME280;10804;48.988;2.408;2023-02-28T05:26:25;102018.50;;;5.63;60.00
21290;BME280;10804;48.988;2.408;2023-02-28T05:28:52;102027.19;;;5.65;59.83
21290;BME280;10804;48.988;2.408;2023-02-28T05:31:21;102036.66;;;5.65;59.81
21290;BME280;10804;48.988;2.408;2023-02-28T05:33:48;102035.72;;;5.61;59.80
21290;BME280;10804;48.988;2.408;2023-02-28T05:36:16;102020.09;;;5.55;60.07
21290;BME280;10804;48.988;2.408;2023-02-28T05:38:46;102045.13;;;5.55;60.18
21290;BME280;10804;48.988;2.408;2023-02-28T05:41:13;102036.53;;;5.57;59.93
21290;BME280;10804;48.988;2.408;2023-02-28T05:43:41;102052.94;;;5.59;60.02
21290;BME280;10804;48.988;2.408;2023-02-28T05:46:10;102045.06;;;5.52;59.75
21290;BME280;10804;48.988;2.408;2023-02-28T05:48:41;102055.41;;;5.52;60.21
21290;BME280;10804;48.988;2.408;2023-02-28T05:51:09;102044.94;;;5.44;59.90
21290;BME280;10804;48.988;2.408;2023-02-28T05:53:36;102044.19;;;5.51;60.36
21290;BME280;10804;48.988;2.408;2023-02-28T05:56:04;102040.63;;;5.43;59.91
21290;BME280;10804;48.988;2.408;2023-02-28T05:58:31;102038.09;;;5.48;59.95
21290;BME280;10804;48.988;2.408;2023-02-28T06:01:00;102046.69;;;5.45;60.09
21290;BME280;10804;48.988;2.408;2023-02-28T06:03:46;102048.50;;;5.51;60.26
21290;BME280;10804;48.988;2.408;2023-02-28T06:06:14;102037.97;;;5.40;60.35
21290;BME280;10804;48.988;2.408;2023-02-28T06:08:41;102037.22;;;5.47;59.93
21290;BME280;10804;48.988;2.408;2023-02-28T06:11:09;102043.97;;;5.36;60.26
21290;BME280;10804;48.988;2.408;2023-02-28T06:13:37;102042.28;;;5.41;60.08
21290;BME280;10804;48.988;2.408;2023-02-28T06:16:04;102037.03;;;5.37;60.08
21290;BME280;10804;48.988;2.408;2023-02-28T06:18:32;102037.97;;;5.39;60.01
21290;BME280;10804;48.988;2.408;2023-02-28T06:21:00;102046.53;;;5.36;60.18
21290;BME280;10804;48.988;2.408;2023-02-28T06:23:28;102045.72;;;5.40;60.29
21290;BME280;10804;48.988;2.408;2023-02-28T06:25:55;102056.06;;;5.40;60.18
21290;BME280;10804;48.988;2.408;2023-02-28T06:28:24;102054.31;;;5.36;60.46
21290;BME280;10804;48.988;2.408;2023-02-28T06:30:52;102046.44;;;5.30;60.17
21290;BME280;10804;48.988;2.408;2023-02-28T06:33:19;102063.81;;;5.37;60.00
21290;BME280;10804;48.988;2.408;2023-02-28T06:35:47;102063.75;;;5.34;60.20
21290;BME280;10804;48.988;2.408;2023-02-28T06:38:16;102052.38;;;5.26;60.40
21290;BME280;10804;48.988;2.408;2023-02-28T06:40:44;102045.47;;;5.25;60.01
21290;BME280;10804;48.988;2.408;2023-02-28T06:43:11;102055.94;;;5.31;59.96
21290;BME280;10804;48.988;2.408;2023-02-28T06:45:41;102062.91;;;5.37;60.31
21290;BME280;10804;48.988;2.408;2023-02-28T06:48:09;102053.28;;;5.27;59.86
21290;BME280;10804;48.988;2.408;2023-02-28T06:50:37;102050.75;;;5.31;59.94
21290;BME280;10804;48.988;2.408;2023-02-28T06:53:04;102057.56;;;5.26;60.15
21290;BME280;10804;48.988;2.408;2023-02-28T06:55:33;102054.13;;;5.26;60.11
21290;BME280;10804;48.988;2.408;2023-02-28T06:58:00;102067.13;;;5.30;60.21
21290;BME280;10804;48.988;2.408;2023-02-28T07:00:28;102057.59;;;5.28;60.36
21290;BME280;10804;48.988;2.408;2023-02-28T07:02:56;102059.19;;;5.20;60.02
21290;BME280;10804;48.988;2.408;2023-02-28T07:05:23;102066.19;;;5.27;59.93
21290;BME280;10804;48.988;2.408;2023-02-28T07:07:51;102064.38;;;5.21;60.22
21290;BME280;10804;48.988;2.408;2023-02-28T07:10:18;102062.69;;;5.23;60.34
21290;BME280;10804;48.988;2.408;2023-02-28T07:12:47;102067.88;;;5.23;60.05
21290;BME280;10804;48.988;2.408;2023-02-28T07:15:15;102058.34;;;5.21;60.08
21290;BME280;10804;48.988;2.408;2023-02-28T07:17:42;102062.69;;;5.23;60.02
21290;BME280;10804;48.988;2.408;2023-02-28T07:20:10;102061.00;;;5.25;59.86
21290;BME280;10804;48.988;2.408;2023-02-28T07:22:38;102061.81;;;5.21;60.34
21290;BME280;10804;48.988;2.408;2023-02-28T07:25:06;102062.69;;;5.23;60.19
21290;BME280;10804;48.988;2.408;2023-02-28T07:27:33;102059.22;;;5.21;60.34
21290;BME280;10804;48.988;2.408;2023-02-28T07:30:03;102059.31;;;5.27;59.93
21290;BME280;10804;48.988;2.408;2023-02-28T07:32:31;102061.84;;;5.23;60.33
21290;BME280;10804;48.988;2.408;2023-02-28T07:34:58;102076.47;;;5.22;60.26
21290;BME280;10804;48.988;2.408;2023-02-28T07:37:25;102073.06;;;5.26;60.07
21290;BME280;10804;48.988;2.408;2023-02-28T07:39:53;102086.00;;;5.26;60.23
21290;BME280;10804;48.988;2.408;2023-02-28T07:42:20;102078.25;;;5.26;60.29
21290;BME280;10804;48.988;2.408;2023-02-28T07:44:47;102067.91;;;5.25;59.89
21290;BME280;10804;48.988;2.408;2023-02-28T07:47:16;102090.41;;;5.30;60.44
21290;BME280;10804;48.988;2.408;2023-02-28T07:49:44;102076.59;;;5.28;60.18
21290;BME280;10804;48.988;2.408;2023-02-28T07:52:12;102067.91;;;5.26;60.03
21290;BME280;10804;48.988;2.408;2023-02-28T07:54:39;102068.00;;;5.32;59.85
21290;BME280;10804;48.988;2.408;2023-02-28T07:57:06;102076.63;;;5.31;59.88
21290;BME280;10804;48.988;2.408;2023-02-28T07:59:33;102081.00;;;5.35;59.75
21290;BME280;10804;48.988;2.408;2023-02-28T08:02:01;102085.28;;;5.33;60.22
21290;BME280;10804;48.988;2.408;2023-02-28T08:04:31;102092.28;;;5.40;59.86
21290;BME280;10804;48.988;2.408;2023-02-28T08:06:59;102087.13;;;5.40;60.25
21290;BME280;10804;48.988;2.408;2023-02-28T08:09:26;102087.13;;;5.40;60.18
21290;BME280;10804;48.988;2.408;2023-02-28T08:11:53;102082.75;;;5.38;60.03
21290;BME280;10804;48.988;2.408;2023-02-28T08:14:21;102087.97;;;5.39;60.34
21290;BME280;10804;48.988;2.408;2023-02-28T08:16:48;102085.50;;;5.45;60.03
21290;BME280;10804;48.988;2.408;2023-02-28T08:19:15;102092.44;;;5.49;59.56
21290;BME280;10804;48.988;2.408;2023-02-28T08:21:44;102084.72;;;5.51;59.97
21290;BME280;10804;48.988;2.408;2023-02-28T08:24:11;102081.25;;;5.49;59.80
21290;BME280;10804;48.988;2.408;2023-02-28T08:26:38;102086.44;;;5.52;60.05
21290;BME280;10804;48.988;2.408;2023-02-28T08:29:06;102084.69;;;5.49;60.01
21290;BME280;10804;48.988;2.408;2023-02-28T08:31:33;102081.16;;;5.44;60.01
21290;BME280;10804;48.988;2.408;2023-02-28T08:34:05;102091.59;;;5.49;59.85
21290;BME280;10804;48.988;2.408;2023-02-28T08:36:32;102101.25;;;5.60;59.95
21290;BME280;10804;48.988;2.408;2023-02-28T08:39:01;102092.50;;;5.52;59.73
21290;BME280;10804;48.988;2.408;2023-02-28T08:41:29;102089.09;;;5.56;59.93
21290;BME280;10804;48.988;2.408;2023-02-28T08:43:56;102108.28;;;5.67;59.70
21290;BME280;10804;48.988;2.408;2023-02-28T08:46:24;102098.72;;;5.63;59.60
21290;BME280;10804;48.988;2.408;2023-02-28T08:48:52;102104.84;;;5.68;59.87
21290;BME280;10804;48.988;2.408;2023-02-28T08:51:20;102099.72;;;5.71;59.66
21290;BME280;10804;48.988;2.408;2023-02-28T08:53:52;102112.69;;;5.73;59.71
21290;BME280;10804;48.988;2.408;2023-02-28T08:56:21;102104.13;;;5.77;59.77
21290;BME280;10804;48.988;2.408;2023-02-28T08:58:50;102108.44;;;5.76;59.45
21290;BME280;10804;48.988;2.408;2023-02-28T09:01:18;102104.13;;;5.77;59.72
21290;BME280;10804;48.988;2.408;2023-02-28T09:03:47;102106.81;;;5.81;59.40
21290;BME280;10804;48.988;2.408;2023-02-28T09:06:16;102105.13;;;5.83;59.70
21290;BME280;10804;48.988;2.408;2023-02-28T09:08:44;102110.34;;;5.86;59.56
21290;BME280;10804;48.988;2.408;2023-02-28T09:11:12;102105.22;;;5.91;59.67
21290;BME280;10804;48.988;2.408;2023-02-28T09:13:40;102113.06;;;5.95;59.42
21290;BME280;10804;48.988;2.408;2023-02-28T09:16:11;102110.53;;;5.98;59.19
21290;BME280;10804;48.988;2.408;2023-02-28T09:18:39;102110.56;;;6.01;59.53
21290;BME280;10804;48.988;2.408;2023-02-28T09:21:08;102105.44;;;6.04;59.54
21290;BME280;10804;48.988;2.408;2023-02-28T09:23:35;102106.34;;;6.06;59.42
21290;BME280;10804;48.988;2.408;2023-02-28T09:26:04;102103.00;;;6.13;59.20
21290;BME280;10804;48.988;2.408;2023-02-28T09:28:31;102094.34;;;6.11;59.54
21290;BME280;10804;48.988;2.408;2023-02-28T09:31:00;102097.91;;;6.19;59.35
21290;BME280;10804;48.988;2.408;2023-02-28T09:33:28;102094.47;;;6.20;59.32
21290;BME280;10804;48.988;2.408;2023-02-28T09:35:59;102082.41;;;6.24;59.42
21290;BME280;10804;48.988;2.408;2023-02-28T09:38:28;102099.75;;;6.29;59.13
21290;BME280;10804;48.988;2.408;2023-02-28T09:40:57;102093.72;;;6.30;59.02
21290;BME280;10804;48.988;2.408;2023-02-28T09:43:28;102098.94;;;6.33;59.22
21290;BME280;10804;48.988;2.408;2023-02-28T09:46:00;102099.00;;;6.39;59.31
21290;BME280;10804;48.988;2.408;2023-02-28T09:48:33;102100.81;;;6.43;59.31
21290;BME280;10804;48.988;2.408;2023-02-28T09:51:04;102100.00;;;6.46;59.25
21290;BME280;10804;48.988;2.408;2023-02-28T09:53:33;102100.94;;;6.52;59.09
21290;BME280;10804;48.988;2.408;2023-02-28T09:56:04;102095.78;;;6.54;59.31
21290;BME280;10804;48.988;2.408;2023-02-28T09:58:38;102097.59;;;6.62;59.32
21290;BME280;10804;48.988;2.408;2023-02-28T10:01:15;102102.84;;;6.68;59.20
21290;BME280;10804;48.988;2.408;2023-02-28T10:03:49;102108.06;;;6.71;59.38
21290;BME280;10804;48.988;2.408;2023-02-28T10:06:21;102100.28;;;6.70;59.03
21290;BME280;10804;48.988;2.408;2023-02-28T10:08:55;102103.72;;;6.70;59.22
21290;BME280;10804;48.988;2.408;2023-02-28T10:11:27;102102.91;;;6.73;59.29
21290;BME280;10804;48.988;2.408;2023-02-28T10:13:58;102091.75;;;6.80;59.16
21290;BME280;10804;48.988;2.408;2023-02-28T10:16:34;102093.53;;;6.84;58.89
21290;BME280;10804;48.988;2.408;2023-02-28T10:19:05;102092.72;;;6.89;59.25
21290;BME280;10804;48.988;2.408;2023-02-28T10:21:38;102087.63;;;6.98;58.51
21290;BME280;10804;48.988;2.408;2023-02-28T10:24:16;102087.72;;;7.04;58.98
21290;BME280;10804;48.988;2.408;2023-02-28T10:26:47;102080.81;;;7.09;58.47
21290;BME280;10804;48.988;2.408;2023-02-28T10:29:15;102083.53;;;7.18;58.19
21290;BME280;10804;48.988;2.408;2023-02-28T10:31:43;102078.38;;;7.23;57.72
21290;BME280;10804;48.988;2.408;2023-02-28T10:34:12;102068.91;;;7.26;58.00
21290;BME280;10804;48.988;2.408;2023-02-28T10:36:41;102057.69;;;7.30;57.63
21290;BME280;10804;48.988;2.408;2023-02-28T10:39:35;102058.59;;;7.35;57.60
21290;BME280;10804;48.988;2.408;2023-02-28T10:42:03;102050.81;;;7.35;58.08
21290;BME280;10804;48.988;2.408;2023-02-28T10:44:31;102055.19;;;7.42;57.46
21290;BME280;10804;48.988;2.408;2023-02-28T10:46:59;102058.69;;;7.46;57.57
21290;BME280;10804;48.988;2.408;2023-02-28T10:49:28;102055.25;;;7.48;56.68
21290;BME280;10804;48.988;2.408;2023-02-28T10:51:57;102054.41;;;7.52;57.38
21290;BME280;10804;48.988;2.408;2023-02-28T10:54:29;102051.84;;;7.56;56.97
21290;BME280;10804;48.988;2.408;2023-02-28T10:57:06;102046.69;;;7.61;57.09
21290;BME280;10804;48.988;2.408;2023-02-28T10:59:34;102043.25;;;7.66;56.83
21290;BME280;10804;48.988;2.408;2023-02-28T11:02:32;102044.16;;;7.70;56.71
21290;BME280;10804;48.988;2.408;2023-02-28T11:04:59;102036.41;;;7.73;nan
21290;BME280;10804;48.988;2.408;2023-02-28T11:07:27;102034.69;;;7.78;56.86
21290;BME280;10804;48.988;2.408;2023-02-28T11:09:56;102028.69;;;7.83;57.20
21290;BME280;10804;48.988;2.408;2023-02-28T11:12:26;102026.13;;;7.91;57.83
21290;BME280;10804;48.988;2.408;2023-02-28T11:14:56;102023.53;;;7.95;57.92
21290;BME280;10804;48.988;2.408;2023-02-28T11:17:27;102019.28;;;8.02;57.86
21290;BME280;10804;48.988;2.408;2023-02-28T11:19:56;102017.56;;;8.10;58.43
21290;BME280;10804;48.988;2.408;2023-02-28T11:22:27;102013.25;;;8.15;57.86
21290;BME280;10804;48.988;2.408;2023-02-28T11:24:57;102021.97;;;8.23;58.04
21290;BME280;10804;48.988;2.408;2023-02-28T11:27:46;102020.31;;;8.29;58.22
21290;BME280;10804;48.988;2.408;2023-02-28T11:30:33;102016.88;;;8.36;57.74
21290;BME280;10804;48.988;2.408;2023-02-28T11:33:20;102019.47;;;8.42;57.56
21290;BME280;10804;48.988;2.408;2023-02-28T11:35:49;102015.16;;;8.49;57.81
21290;BME280;10804;48.988;2.408;2023-02-28T11:38:16;102007.38;;;8.52;57.41
21290;BME280;10804;48.988;2.408;2023-02-28T11:40:50;101998.72;;;8.56;57.58
21290;BME280;10804;48.988;2.408;2023-02-28T11:43:30;102014.31;;;8.59;57.65
21290;BME280;10804;48.988;2.408;2023-02-28T11:46:16;101997.00;;;8.64;57.51
21290;BME280;10804;48.988;2.408;2023-02-28T11:48:55;101993.53;;;8.68;57.46
21290;BME280;10804;48.988;2.408;2023-02-28T11:51:32;101991.81;;;8.71;56.97
21290;BME280;10804;48.988;2.408;2023-02-28T11:57:18;101985.78;;;8.84;56.83
21290;BME280;10804;48.988;2.408;2023-02-28T11:59:56;101976.25;;;8.91;56.54
21290;BME280;10804;48.988;2.408;2023-02-28T12:02:50;101976.25;;;8.98;57.04
21290;BME280;10804;48.988;2.408;2023-02-28T12:05:29;101969.31;;;9.05;57.05
21290;BME280;10804;48.988;2.408;2023-02-28T12:08:10;101966.72;;;9.15;56.28
21290;BME280;10804;48.988;2.408;2023-02-28T12:10:54;101963.25;;;9.22;56.76
21290;BME280;10804;48.988;2.408;2023-02-28T12:13:26;101951.09;;;9.30;56.05
21290;BME280;10804;48.988;2.408;2023-02-28T12:16:19;101960.63;;;9.39;56.24
21290;BME280;10804;48.988;2.408;2023-02-28T12:22:05;101940.66;;;9.50;55.94
21290;BME280;10804;48.988;2.408;2023-02-28T12:24:56;101949.31;;;9.56;56.20
21290;BME280;10804;48.988;2.408;2023-02-28T12:27:28;101933.69;;;9.59;55.06
21290;BME280;10804;48.988;2.408;2023-02-28T12:30:00;101938.88;;;9.62;55.00
21290;BME280;10804;48.988;2.408;2023-02-28T12:32:32;101940.63;;;9.65;54.70
21290;BME280;10804;48.988;2.408;2023-02-28T12:35:03;101940.59;;;9.68;54.92
21290;BME280;10804;48.988;2.408;2023-02-28T12:37:36;101931.06;;;9.70;54.94
21290;BME280;10804;48.988;2.408;2023-02-28T12:40:12;101931.91;;;9.73;54.82
21290;BME280;10804;48.988;2.408;2023-02-28T12:42:44;101925.81;;;9.73;54.79
21290;BME280;10804;48.988;2.408;2023-02-28T12:45:18;101923.22;;;9.74;54.44
21290;BME280;10804;48.988;2.408;2023-02-28T12:47:50;101924.94;;;9.72;54.53
21290;BME280;10804;48.988;2.408;2023-02-28T12:50:19;101927.56;;;9.74;54.69
21290;BME280;10804;48.988;2.408;2023-02-28T12:52:59;101919.72;;;9.72;54.95
21290;BME280;10804;48.988;2.408;2023-02-28T12:55:35;101913.69;;;9.73;54.56
21290;BME280;10804;48.988;2.408;2023-02-28T12:58:12;101916.28;;;9.73;54.23
21290;BME280;10804;48.988;2.408;2023-02-28T13:00:52;101915.38;;;9.76;54.46
21290;BME280;10804;48.988;2.408;2023-02-28T13:03:42;101906.69;;;9.77;54.81
21290;BME280;10804;48.988;2.408;2023-02-28T13:06:28;101906.69;;;9.83;54.80
21290;BME280;10804;48.988;2.408;2023-02-28T13:09:09;101908.41;;;9.87;54.35
21290;BME280;10804;48.988;2.408;2023-02-28T13:11:40;101902.28;;;9.91;54.24
21290;BME280;10804;48.988;2.408;2023-02-28T13:14:24;101900.53;;;9.94;54.54
21290;BME280;10804;48.988;2.408;2023-02-28T13:16:57;101905.75;;;9.99;53.89
21290;BME280;10804;48.988;2.408;2023-02-28T13:19:26;101892.72;;;10.05;53.97
21290;BME280;10804;48.988;2.408;2023-02-28T13:21:56;101893.56;;;10.10;53.93
21290;BME280;10804;48.988;2.408;2023-02-28T13:24:46;101890.03;;;10.18;54.22
21290;BME280;10804;48.988;2.408;2023-02-28T13:27:33;101883.94;;;10.24;54.25